Time;durP1;ratioP1;P1;durP2;ratioP2;P2;SDS_P1;SDS_P2;PMS_P1;PMS_P2;Temp;Humidity;BMP_temperature;BMP_pressure;BME280_temperature;BME280_humidity;BME280_pressure;Samples;Min_cycle;Max_cycle;Signal;HPM_P1;HPM_P2
2021/01/18 00:00:15;;;;;;;17.52;8.93;;;;;;;-17.56;63.83;100052.84;5105719;28;20020;-54
2021/01/18 00:02:41;;;;;;;19.77;9.75;;;;;;;-17.52;63.62;100039.19;5120719;28;20027;-53
2021/01/18 00:05:08;;;;;;;24.60;10.05;;;;;;;-17.68;62.74;100037.72;5126183;28;20051;-54
2021/01/18 00:07:51;;;;;;;20.33;9.68;;;;;;;-17.85;62.78;100063.31;5126177;28;20090;-52
2021/01/18 00:10:21;;;;;;;21.50;9.63;;;;;;;-17.87;63.17;100052.38;5125860;28;20026;-52
2021/01/18 00:12:49;;;;;;;19.95;10.07;;;;;;;-17.67;63.29;100079.03;5110402;28;20082;-53
2021/01/18 00:15:16;;;;;;;18.77;8.90;;;;;;;-17.85;62.74;100059.94;5105640;28;20028;-52
2021/01/18 00:17:42;;;;;;;19.33;9.82;;;;;;;-17.70;63.28;100063.03;5105494;28;20028;-52
2021/01/18 00:20:13;;;;;;;16.42;8.57;;;;;;;-17.72;62.82;100046.44;5105468;28;20033;-52
2021/01/18 00:22:42;;;;;;;19.63;8.45;;;;;;;-17.73;63.08;100056.19;5119506;28;20073;-53
2021/01/18 00:25:09;;;;;;;19.00;9.60;;;;;;;-17.81;62.28;100057.94;5125697;28;20051;-52
2021/01/18 00:27:35;;;;;;;19.25;9.38;;;;;;;-17.94;61.86;100053.44;5125666;28;20032;-53
2021/01/18 00:30:04;;;;;;;17.27;8.18;;;;;;;-18.03;61.93;100059.97;5125670;28;20030;-51
2021/01/18 00:32:29;;;;;;;24.20;9.77;;;;;;;-17.98;63.45;100068.72;5125336;28;20062;-52
2021/01/18 00:34:55;;;;;;;17.30;8.65;;;;;;;-17.82;62.84;100072.63;5125666;28;20031;-53
2021/01/18 00:37:20;;;;;;;20.63;8.98;;;;;;;-17.82;62.76;100068.56;5125523;28;20030;-52
2021/01/18 00:39:46;;;;;;;24.40;11.40;;;;;;;-18.01;63.04;100070.88;5125707;28;20027;-54
2021/01/18 00:42:21;;;;;;;20.70;9.25;;;;;;;-17.98;62.48;100068.72;5115398;28;20024;-53
2021/01/18 00:44:47;;;;;;;18.65;9.45;;;;;;;-17.94;62.81;100073.22;5105055;28;20043;-52
2021/01/18 00:47:14;;;;;;;17.83;9.27;;;;;;;-17.83;63.60;100069.25;5104928;28;20205;-52
2021/01/18 00:49:40;;;;;;;19.30;8.15;;;;;;;-17.83;62.74;100074.22;5104996;28;20178;-54
2021/01/18 00:52:07;;;;;;;17.60;8.07;;;;;;;-17.82;63.71;100078.44;5113973;28;20220;-53
2021/01/18 00:54:32;;;;;;;18.83;8.77;;;;;;;-17.70;63.46;100078.72;5125253;28;20023;-53
2021/01/18 00:56:58;;;;;;;17.48;9.38;;;;;;;-17.71;63.28;100064.66;5125042;28;20189;-52
2021/01/18 00:59:23;;;;;;;22.35;10.40;;;;;;;-17.61;63.11;100071.31;5125173;27;20027;-53
2021/01/18 01:01:49;;;;;;;16.20;8.68;;;;;;;-17.56;62.65;100073.50;5118235;28;20024;-53
2021/01/18 01:04:15;;;;;;;16.77;8.07;;;;;;;-17.67;62.52;100073.22;5104484;28;20107;-53
2021/01/18 01:06:40;;;;;;;20.45;9.05;;;;;;;-17.66;62.21;100060.13;5104490;28;20309;-52
2021/01/18 01:09:06;;;;;;;17.58;9.05;;;;;;;-17.92;62.32;100061.88;5104369;28;20032;-52
2021/01/18 01:11:32;;;;;;;20.73;9.68;;;;;;;-17.83;62.59;100070.88;5108435;28;20024;-52
2021/01/18 01:13:58;;;;;;;19.83;9.55;;;;;;;-17.84;62.66;100064.19;5124875;28;20335;-53
2021/01/18 01:16:23;;;;;;;17.50;8.70;;;;;;;-17.76;62.65;100058.38;5124765;28;20050;-53
2021/01/18 01:18:49;;;;;;;20.48;7.78;;;;;;;-17.78;62.77;100054.88;5124715;28;20027;-52
2021/01/18 01:21:15;;;;;;;18.63;8.80;;;;;;;-17.66;62.91;100056.06;5122989;28;20301;-51
2021/01/18 01:23:40;;;;;;;17.23;8.90;;;;;;;-17.65;62.60;100050.38;5104398;28;20024;-52
2021/01/18 01:26:06;;;;;;;16.98;9.98;;;;;;;-17.62;63.28;100058.09;5104009;28;20035;-52
2021/01/18 01:28:32;;;;;;;23.00;9.93;;;;;;;-17.71;63.42;100047.34;5112186;28;20016;-54
2021/01/18 01:30:57;;;;;;;21.25;9.60;;;;;;;-17.65;62.75;100062.75;5123237;28;20310;-52
2021/01/18 01:33:23;;;;;;;19.17;8.82;;;;;;;-17.69;62.37;100055.75;5124326;28;20034;-52
2021/01/18 01:35:48;;;;;;;20.55;9.77;;;;;;;-17.65;62.86;100047.91;5124302;28;20050;-52
2021/01/18 01:38:14;;;;;;;19.52;9.63;;;;;;;-17.79;63.40;100043.25;5139686;27;20058;-52
2021/01/18 01:40:39;;;;;;;21.83;9.43;;;;;;;-17.75;63.85;100040.34;5124164;28;20086;-52
2021/01/18 01:43:05;;;;;;;21.70;11.77;;;;;;;-17.57;64.26;100051.09;5107245;27;20408;-53
2021/01/18 01:45:31;;;;;;;21.42;10.65;;;;;;;-17.57;63.88;100037.16;5103730;28;20133;-53
2021/01/18 01:47:57;;;;;;;25.70;10.55;;;;;;;-17.39;63.71;100045.41;5103425;28;20340;-52
2021/01/18 01:50:24;;;;;;;18.98;9.73;;;;;;;-17.77;64.20;99973.44;5103654;28;20067;-52
2021/01/18 01:52:54;;;;;;;23.02;10.70;;;;;;;-17.68;64.42;99978.38;5117939;28;20301;-53
2021/01/18 01:55:30;;;;;;;20.95;10.38;;;;;;;-17.18;64.38;100076.97;5124183;28;20034;-53
2021/01/18 01:57:58;;;;;;;23.17;10.65;;;;;;;-17.13;64.58;100049.47;5123871;28;20027;-53
2021/01/18 02:00:24;;;;;;;18.90;10.38;;;;;;;-17.18;63.97;100047.28;5123963;28;20038;-53
2021/01/18 02:02:51;;;;;;;22.17;10.73;;;;;;;-17.57;64.55;99960.47;5109259;28;20055;-53
2021/01/18 02:05:17;;;;;;;24.15;10.77;;;;;;;-17.07;64.53;100041.72;5103456;28;20054;-52
2021/01/18 02:07:43;;;;;;;22.15;10.90;;;;;;;-16.92;64.23;100028.31;5103511;28;20312;-52
2021/01/18 02:10:10;;;;;;;18.88;9.85;;;;;;;-16.91;64.54;100035.00;5103286;28;20031;-54
2021/01/18 02:12:36;;;;;;;22.00;12.15;;;;;;;-17.00;65.57;100035.75;5115568;28;20340;-53
2021/01/18 02:15:19;;;;;;;23.23;10.35;;;;;;;-17.60;64.05;99952.75;5123768;28;20026;-54
2021/01/18 02:18:16;;;;;;;21.63;10.88;;;;;;;-17.20;64.24;100049.63;5123594;28;20054;-52
2021/01/18 02:21:00;;;;;;;18.80;10.00;;;;;;;-17.26;64.20;100049.06;5123691;28;20413;-52
2021/01/18 02:23:44;;;;;;;18.10;9.52;;;;;;;-17.25;64.26;100050.81;5104168;28;20028;-52
2021/01/18 02:26:53;;;;;;;19.73;9.02;;;;;;;-17.46;63.60;100055.47;5103190;28;20059;-53
2021/01/18 02:29:24;;;;;;;25.65;9.23;;;;;;;-17.42;63.91;100067.41;5103771;28;20035;-53
2021/01/18 02:32:18;;;;;;;25.48;9.35;;;;;;;-17.33;64.30;100082.25;5123487;28;20054;-53
2021/01/18 02:34:49;;;;;;;24.70;10.55;;;;;;;-17.31;63.74;100067.53;5123405;28;20301;-53
2021/01/18 02:37:35;;;;;;;21.05;9.27;;;;;;;-17.72;64.11;99981.28;5123295;28;20080;-53
2021/01/18 02:40:12;;;;;;;22.00;9.65;;;;;;;-17.38;63.85;100068.59;5123466;28;20023;-53
2021/01/18 02:42:50;;;;;;;20.08;9.15;;;;;;;-17.76;63.57;100001.50;5111001;28;20046;-52
2021/01/18 02:45:18;;;;;;;20.33;9.63;;;;;;;-17.26;63.66;100054.88;5102820;28;20023;-53
2021/01/18 02:47:46;;;;;;;38.58;15.50;;;;;;;-17.29;64.38;100032.31;5102502;28;20039;-52
2021/01/18 02:50:12;;;;;;;22.10;9.43;;;;;;;-17.25;63.68;100064.03;5102259;28;20050;-52
2021/01/18 02:52:42;;;;;;;22.80;10.85;;;;;;;-17.41;62.97;100060.84;5114748;28;20028;-52
2021/01/18 02:55:09;;;;;;;21.67;8.90;;;;;;;-17.43;63.34;100069.72;5122967;28;20024;-52
2021/01/18 02:57:43;;;;;;;21.92;10.40;;;;;;;-17.51;63.31;100076.44;5123127;28;20557;-51
2021/01/18 03:00:13;;;;;;;18.45;8.82;;;;;;;-17.52;63.77;100076.28;5123161;28;20052;-51
2021/01/18 03:02:54;;;;;;;21.37;9.63;;;;;;;-17.86;63.91;100021.16;5111201;28;20046;-53
2021/01/18 03:05:29;;;;;;;23.58;8.85;;;;;;;-17.44;63.39;100102.63;5102760;28;20040;-53
2021/01/18 03:08:22;;;;;;;21.88;10.32;;;;;;;-17.50;62.89;100111.94;5102655;28;20625;-53
2021/01/18 03:10:56;;;;;;;24.90;10.52;;;;;;;-18.14;62.97;100028.41;5102522;28;20043;-52
2021/01/18 03:13:42;;;;;;;17.67;9.15;;;;;;;-17.44;64.01;100123.31;5120580;28;20057;-52
2021/01/18 03:16:23;;;;;;;21.30;9.10;;;;;;;-17.92;63.25;100048.66;5122805;28;20209;-52
2021/01/18 03:18:50;;;;;;;20.02;8.20;;;;;;;-17.42;63.00;100134.19;5122843;28;20027;-52
2021/01/18 03:21:17;;;;;;;17.55;9.07;;;;;;;-17.62;62.14;100139.72;5122709;28;20024;-52
2021/01/18 03:23:44;;;;;;;19.60;9.35;;;;;;;-17.66;62.73;100134.31;5102575;28;20091;-53
2021/01/18 03:26:10;;;;;;;22.20;9.63;;;;;;;-17.72;62.28;100140.41;5118730;28;20035;-51
2021/01/18 03:28:36;;;;;;;21.67;9.68;;;;;;;-17.73;61.83;100150.16;5122613;28;20036;-52
2021/01/18 03:31:02;;;;;;;22.95;10.32;;;;;;;-17.67;62.78;100149.88;5122676;28;20035;-55
2021/01/18 03:33:28;;;;;;;22.75;11.00;;;;;;;-17.59;62.65;100146.56;5121352;28;20055;-52
2021/01/18 03:35:54;;;;;;;21.88;9.88;;;;;;;-17.60;62.51;100157.16;5122842;28;20020;-53
2021/01/18 03:38:21;;;;;;;22.63;10.32;;;;;;;-17.49;63.36;100154.13;5122649;28;20055;-53
2021/01/18 03:40:47;;;;;;;23.95;10.35;;;;;;;-17.68;63.01;100145.66;5122853;28;20110;-53
2021/01/18 03:43:13;;;;;;;19.70;9.75;;;;;;;-17.56;63.18;100132.88;5122414;28;20035;-53
2021/01/18 03:45:41;;;;;;;23.88;10.27;;;;;;;-18.08;62.27;100048.78;5122371;28;20064;-53
2021/01/18 03:48:08;;;;;;;19.65;10.15;;;;;;;-18.15;62.44;100046.41;5122691;28;20364;-54
2021/01/18 03:50:35;;;;;;;24.13;9.95;;;;;;;-17.56;62.39;100114.69;5122454;28;20095;-53
2021/01/18 03:53:02;;;;;;;21.92;9.73;;;;;;;-17.55;63.01;100102.47;5107919;28;20103;-53
2021/01/18 03:55:28;;;;;;;21.92;9.98;;;;;;;-17.67;62.55;100091.38;5102146;28;20073;-52
2021/01/18 03:57:54;;;;;;;21.35;9.98;;;;;;;-17.70;62.31;100108.41;5102254;28;20028;-54
2021/01/18 04:00:28;;;;;;;22.55;9.68;;;;;;;-17.50;62.94;100109.47;5103610;28;20032;-52
2021/01/18 04:02:54;;;;;;;27.77;9.93;;;;;;;-17.51;63.37;100106.13;5118927;28;20034;-52
2021/01/18 04:05:21;;;;;;;25.48;11.50;;;;;;;-17.53;63.34;100106.69;5126142;28;20039;-52
2021/01/18 04:07:47;;;;;;;26.33;11.52;;;;;;;-17.72;63.20;100097.50;5126114;28;20030;-54
2021/01/18 04:10:18;;;;;;;21.65;10.13;;;;;;;-17.68;64.14;100101.13;5126076;28;20027;-54
2021/01/18 04:12:45;;;;;;;19.40;11.07;;;;;;;-17.43;64.59;100119.22;5114096;28;20050;-57
2021/01/18 04:15:13;;;;;;;29.63;11.02;;;;;;;-17.28;64.41;100118.19;5105490;28;20310;-52
2021/01/18 04:17:40;;;;;;;24.05;10.25;;;;;;;-17.30;64.01;100103.94;5105443;28;20024;-51
2021/01/18 04:20:07;;;;;;;25.20;10.30;;;;;;;-17.33;64.46;100092.13;5105274;28;20032;-51
2021/01/18 04:22:33;;;;;;;21.48;10.75;;;;;;;-17.49;63.36;100079.06;5115399;28;20038;-51
2021/01/18 04:24:58;;;;;;;20.92;11.05;;;;;;;-17.66;63.58;100078.31;5125494;28;20223;-52
2021/01/18 04:27:24;;;;;;;22.08;10.95;;;;;;;-17.59;64.06;100073.22;5125921;28;20054;-50
2021/01/18 04:29:50;;;;;;;23.77;10.75;;;;;;;-17.45;64.15;100067.13;5125285;28;20038;-51
2021/01/18 04:32:15;;;;;;;27.45;10.73;;;;;;;-17.38;65.11;100051.25;5125426;28;20024;-51
2021/01/18 04:34:42;;;;;;;26.65;12.02;;;;;;;-17.60;64.58;100075.53;5125471;27;20299;-51
2021/01/18 04:37:08;;;;;;;25.00;12.60;;;;;;;-17.62;65.09;100072.94;5125390;28;20061;-52
2021/01/18 04:39:33;;;;;;;25.80;11.57;;;;;;;-17.40;65.19;100062.59;5125482;28;20051;-51
2021/01/18 04:41:59;;;;;;;26.50;11.60;;;;;;;-17.21;65.22;100070.16;5120116;28;20024;-50
2021/01/18 04:44:28;;;;;;;24.17;11.32;;;;;;;-17.46;65.03;100064.50;5104641;28;20054;-52
2021/01/18 04:46:56;;;;;;;27.63;10.77;;;;;;;-17.28;65.59;100073.66;5104387;28;20231;-52
2021/01/18 04:49:22;;;;;;;30.73;12.25;;;;;;;-17.17;65.56;100072.19;5104316;28;20083;-52
2021/01/18 04:51:55;;;;;;;22.88;11.55;;;;;;;-17.04;65.57;100097.38;5107711;28;20027;-52
2021/01/18 04:54:23;;;;;;;24.92;10.40;;;;;;;-17.29;65.17;100019.94;5124751;28;20312;-51
2021/01/18 04:57:11;;;;;;;25.92;11.48;;;;;;;-17.13;65.25;100065.94;5124998;28;20020;-52
2021/01/18 04:59:49;;;;;;;26.20;11.85;;;;;;;-17.21;66.16;100062.75;5125061;28;20317;-50
2021/01/18 05:02:20;;;;;;;25.05;10.02;;;;;;;-17.13;65.84;100070.88;5117793;28;20209;-52
2021/01/18 05:04:47;;;;;;;24.08;10.52;;;;;;;-17.08;66.84;100075.53;5102999;28;20036;-52
2021/01/18 05:07:34;;;;;;;27.52;10.00;;;;;;;-16.91;66.59;100067.19;5104305;28;20131;-52
2021/01/18 05:10:06;;;;;;;23.90;11.57;;;;;;;-17.58;66.71;99956.25;5104112;28;20229;-50
2021/01/18 05:12:40;;;;;;;22.63;11.45;;;;;;;-17.36;67.09;99978.03;5112713;28;20038;-51
2021/01/18 05:15:07;;;;;;;24.95;12.40;;;;;;;-16.67;67.36;100057.78;5124622;28;20030;-51
2021/01/18 05:17:44;;;;;;;30.08;12.48;;;;;;;-16.66;67.78;100049.59;5122913;28;20065;-51
2021/01/18 05:20:12;;;;;;;27.75;12.60;;;;;;;-17.05;67.69;99964.41;5124182;28;20031;-50
2021/01/18 05:22:42;;;;;;;30.33;13.35;;;;;;;-16.55;68.98;100071.28;5113672;28;20349;-51
2021/01/18 05:25:08;;;;;;;33.22;13.88;;;;;;;-16.56;68.78;100049.69;5103532;28;20309;-52
2021/01/18 05:27:34;;;;;;;34.47;15.13;;;;;;;-16.50;69.28;100056.81;5103576;28;20273;-51
2021/01/18 05:30:00;;;;;;;33.47;13.98;;;;;;;-16.43;69.80;100053.31;5123698;28;20046;-52
2021/01/18 05:32:26;;;;;;;36.42;14.35;;;;;;;-16.42;69.23;100055.91;5124114;28;20024;-52
2021/01/18 05:35:12;;;;;;;35.38;14.35;;;;;;;-16.29;69.15;100055.41;5124384;28;20026;-51
2021/01/18 05:37:59;;;;;;;40.45;16.10;;;;;;;-16.36;68.88;100065.50;5124216;28;20039;-52
2021/01/18 05:40:25;;;;;;;37.97;13.80;;;;;;;-16.44;69.30;100054.91;5123882;28;20318;-51
2021/01/18 05:42:52;;;;;;;37.08;14.93;;;;;;;-16.39;68.60;100052.84;5123600;28;20201;-50
2021/01/18 05:45:34;;;;;;;34.53;13.32;;;;;;;-16.36;68.89;100056.50;5123781;28;20073;-51
2021/01/18 05:48:02;;;;;;;32.33;13.85;;;;;;;-16.30;68.57;100048.75;5123261;28;20208;-51
2021/01/18 05:50:29;;;;;;;33.35;13.52;;;;;;;-16.53;68.23;100056.53;5123504;28;20028;-51
2021/01/18 05:52:55;;;;;;;28.73;13.00;;;;;;;-16.60;68.22;100055.13;5122781;28;20041;-50
2021/01/18 05:55:24;;;;;;;31.40;13.82;;;;;;;-16.59;67.38;100065.91;5123444;28;20081;-51
2021/01/18 05:57:58;;;;;;;37.90;15.70;;;;;;;-16.58;67.84;100082.53;5122400;28;20015;-51
2021/01/18 06:00:36;;;;;;;31.27;14.40;;;;;;;-16.51;67.49;100070.81;5123394;28;20302;-51
2021/01/18 06:03:09;;;;;;;28.63;11.77;;;;;;;-16.48;66.97;100061.94;5123468;28;20099;-51
2021/01/18 06:05:40;;;;;;;25.58;13.02;;;;;;;-16.79;67.30;100007.13;5123257;28;20098;-50
2021/01/18 06:08:19;;;;;;;26.88;13.07;;;;;;;-16.37;67.25;100059.69;5123647;28;20027;-51
2021/01/18 06:10:49;;;;;;;31.30;13.40;;;;;;;-16.65;67.23;99994.38;5123431;28;20351;-51
2021/01/18 06:13:29;;;;;;;27.73;12.75;;;;;;;-16.68;67.71;99984.19;5108823;28;20043;-51
2021/01/18 06:16:06;;;;;;;33.40;13.23;;;;;;;-16.32;68.98;100063.44;5102998;28;20051;-51
2021/01/18 06:18:41;;;;;;;36.65;16.15;;;;;;;-16.16;69.08;100064.84;5103141;28;20035;-50
2021/01/18 06:21:09;;;;;;;32.67;14.00;;;;;;;-16.18;69.15;100059.75;5102870;28;20047;-50
2021/01/18 06:23:35;;;;;;;33.97;14.63;;;;;;;-16.11;69.70;100071.09;5119694;28;20377;-51
2021/01/18 06:26:01;;;;;;;30.42;13.80;;;;;;;-16.09;68.80;100063.78;5123082;28;20031;-50
2021/01/18 06:28:38;;;;;;;30.88;14.07;;;;;;;-16.02;69.54;100105.75;5122940;28;20253;-50
2021/01/18 06:31:11;;;;;;;27.55;14.02;;;;;;;-15.93;69.75;100090.81;5123236;27;20020;-51
2021/01/18 06:33:46;;;;;;;34.83;14.75;;;;;;;-15.99;67.31;100091.16;5123068;28;20024;-51
2021/01/18 06:36:36;;;;;;;36.15;15.98;;;;;;;-15.95;67.64;100097.28;5123363;28;20035;-51
2021/01/18 06:39:05;;;;;;;37.88;15.95;;;;;;;-15.88;68.15;100092.97;5123261;28;20023;-51
2021/01/18 06:41:33;;;;;;;33.15;15.27;;;;;;;-16.18;67.43;100009.28;5123182;28;20034;-51
2021/01/18 06:43:59;;;;;;;42.60;15.88;;;;;;;-15.90;67.29;100091.97;5122973;28;20034;-52
2021/01/18 06:46:29;;;;;;;36.05;15.55;;;;;;;-16.21;68.13;100026.38;5123082;28;20031;-49
2021/01/18 06:48:55;;;;;;;32.40;15.88;;;;;;;-15.73;67.15;100097.53;5122942;28;20213;-51
2021/01/18 06:51:26;;;;;;;36.97;16.35;;;;;;;-15.63;67.19;100129.88;5123158;28;20054;-51
2021/01/18 06:53:53;;;;;;;32.53;14.75;;;;;;;-15.58;67.09;100105.47;5122918;28;20024;-51
2021/01/18 06:56:22;;;;;;;34.15;14.90;;;;;;;-15.53;66.63;100105.13;5123025;28;20354;-51
2021/01/18 06:59:04;;;;;;;33.35;15.95;;;;;;;-16.07;66.96;100017.66;5122907;28;20058;-51
2021/01/18 07:01:31;;;;;;;33.30;14.05;;;;;;;-15.39;66.29;100110.44;5122817;28;20035;-51
2021/01/18 07:04:12;;;;;;;33.80;15.85;;;;;;;-15.36;65.02;100141.38;5122597;28;20043;-50
2021/01/18 07:06:39;;;;;;;30.35;14.45;;;;;;;-15.37;65.42;100127.22;5122888;28;20035;-50
2021/01/18 07:09:09;;;;;;;41.50;17.58;;;;;;;-15.28;65.98;100123.03;5122839;28;20280;-51
2021/01/18 07:11:35;;;;;;;39.17;17.00;;;;;;;-15.24;65.61;100121.72;5122819;28;20024;-51
2021/01/18 07:14:11;;;;;;;34.40;16.15;;;;;;;-15.17;66.61;100124.00;5102618;28;20050;-52
2021/01/18 07:16:40;;;;;;;33.53;16.38;;;;;;;-15.25;64.85;100112.50;5102264;28;20044;-51
2021/01/18 07:19:08;;;;;;;35.80;16.85;;;;;;;-15.22;65.66;100132.63;5102392;28;20028;-51
2021/01/18 07:21:42;;;;;;;47.00;18.42;;;;;;;-15.56;65.38;100050.28;5102250;28;20035;-51
2021/01/18 07:24:12;;;;;;;36.70;15.95;;;;;;;-15.36;66.22;100053.59;5102443;28;20302;-51
2021/01/18 07:26:56;;;;;;;46.05;18.35;;;;;;;-14.88;64.43;100132.22;5108347;28;20091;-51
2021/01/18 07:29:25;;;;;;;35.08;17.00;;;;;;;-14.74;66.67;100133.41;5117183;28;20035;-51
2021/01/18 07:31:55;;;;;;;34.13;17.00;;;;;;;-14.45;66.81;100155.75;5122717;28;20023;-50
2021/01/18 07:34:24;;;;;;;35.33;15.65;;;;;;;-14.78;64.58;100073.50;5122681;28;20030;-51
2021/01/18 07:36:51;;;;;;;40.08;18.38;;;;;;;-14.49;65.79;100122.31;5124146;28;20028;-52
2021/01/18 07:39:29;;;;;;;40.63;18.33;;;;;;;-14.41;65.65;100116.38;5109876;28;20058;-51
2021/01/18 07:41:55;;;;;;;45.63;19.05;;;;;;;-14.39;65.75;100111.53;5108156;28;20050;-51
2021/01/18 07:44:38;;;;;;;42.47;17.73;;;;;;;-13.96;66.70;100107.63;5126651;28;20095;-52
2021/01/18 07:47:09;;;;;;;34.88;16.30;;;;;;;-13.90;66.17;100090.69;5125766;28;20092;-51
2021/01/18 07:49:40;;;;;;;;;;;;;;;-13.80;65.45;100109.75;5126627;28;20358;-51
2021/01/18 07:52:26;;;;;;;35.00;15.75;;;;;;;-13.80;64.57;100123.81;5124976;28;19915;-52
2021/01/18 07:54:54;;;;;;;36.78;16.30;;;;;;;-13.56;65.13;100115.84;5124200;28;20271;-50
2021/01/18 07:57:26;;;;;;;38.80;17.95;;;;;;;-13.53;63.93;100112.72;5126299;27;20040;-51
2021/01/18 08:00:16;;;;;;;39.70;18.92;;;;;;;-13.36;63.67;100106.63;5126484;28;20051;-52
2021/01/18 08:02:49;;;;;;;45.60;19.83;;;;;;;-13.43;63.47;100107.75;5125178;28;20043;-51
2021/01/18 08:05:33;;;;;;;39.40;18.05;;;;;;;-13.16;65.42;100103.19;5121951;27;20031;-51
2021/01/18 08:08:14;;;;;;;37.58;16.42;;;;;;;-12.91;64.78;100102.63;5115513;28;20047;-51
2021/01/18 08:10:48;;;;;;;32.50;15.55;;;;;;;-13.04;63.42;100104.16;5125395;28;20038;-52
2021/01/18 08:13:29;;;;;;;26.00;14.13;;;;;;;-12.95;63.32;100098.13;5137387;27;20036;-50
2021/01/18 08:15:55;;;;;;;26.50;12.80;;;;;;;-13.16;64.75;100088.25;5124908;28;20125;-51
2021/01/18 08:18:26;;;;;;;34.63;13.45;;;;;;;-12.97;64.73;100092.19;5125676;27;20035;-51
2021/01/18 08:20:51;;;;;;;35.30;15.65;;;;;;;-13.12;63.53;100097.69;5125610;28;20300;-51
2021/01/18 08:23:43;;;;;;;30.67;15.80;;;;;;;-13.03;64.89;100095.91;5125540;28;20034;-53
2021/01/18 08:26:10;;;;;;;38.35;16.88;;;;;;;-13.11;63.82;100083.59;5123884;27;20024;-51
2021/01/18 08:28:36;;;;;;;39.92;18.10;;;;;;;-12.94;64.67;100099.88;5124842;27;20327;-51
2021/01/18 08:31:02;;;;;;;38.28;17.77;;;;;;;-12.90;64.22;100104.38;5125556;28;20043;-51
2021/01/18 08:33:29;;;;;;;35.35;16.95;;;;;;;-13.10;62.82;100093.69;5125424;28;20053;-50
2021/01/18 08:35:56;;;;;;;37.33;17.63;;;;;;;-13.03;63.22;100110.88;5122796;28;20016;-52
2021/01/18 08:38:26;;;;;;;40.72;18.30;;;;;;;-14.01;61.63;100045.78;5117358;28;20030;-52
2021/01/18 08:41:02;;;;;;;44.15;19.15;;;;;;;-13.67;62.67;100111.59;5119007;28;20254;-52
2021/01/18 08:43:45;;;;;;;39.33;18.23;;;;;;;-13.90;64.30;100137.97;5121395;27;20080;-51
2021/01/18 08:46:34;;;;;;;37.85;18.20;;;;;;;-14.00;65.32;100129.63;5121639;28;20030;-50
2021/01/18 08:49:31;;;;;;;44.20;18.38;;;;;;;-13.82;65.53;100113.72;5119861;27;20035;-52
2021/01/18 08:51:58;;;;;;;41.75;18.92;;;;;;;-13.72;64.27;100108.75;5118370;28;20031;-52
2021/01/18 08:54:38;;;;;;;41.50;19.15;;;;;;;-14.20;64.86;100026.88;5122313;28;20069;-52
2021/01/18 08:57:25;;;;;;;35.58;16.25;;;;;;;-13.55;64.65;100091.81;5119862;28;20497;-50
2021/01/18 09:00:03;;;;;;;33.17;16.38;;;;;;;-13.94;64.99;100076.25;5121929;27;20035;-53
2021/01/18 09:02:29;;;;;;;36.30;16.15;;;;;;;-13.94;64.99;100062.94;5122104;28;20098;-52
2021/01/18 09:05:11;;;;;;;40.50;18.23;;;;;;;-13.69;65.69;100072.41;5108993;28;20174;-51
2021/01/18 09:07:37;;;;;;;41.70;19.63;;;;;;;-13.83;65.33;100066.31;5122068;28;20063;-51
2021/01/18 09:10:03;;;;;;;39.70;19.63;;;;;;;-13.73;64.25;100052.25;5120603;28;20046;-51
2021/01/18 09:12:33;;;;;;;33.17;18.63;;;;;;;-13.68;65.61;100070.03;5122650;28;20023;-52
2021/01/18 09:15:08;;;;;;;38.95;18.13;;;;;;;-13.78;64.97;100084.97;5123914;28;20023;-51
2021/01/18 09:17:35;;;;;;;42.72;18.85;;;;;;;-13.94;65.13;100068.78;5122751;28;20027;-53
2021/01/18 09:20:16;;;;;;;31.02;14.80;;;;;;;-14.00;64.79;100079.88;5123596;28;20099;-52
2021/01/18 09:22:48;;;;;;;33.28;15.57;;;;;;;-13.90;65.00;100082.38;5114960;28;20028;-51
2021/01/18 09:25:17;;;;;;;31.55;14.95;;;;;;;-13.89;65.03;100084.13;5124243;28;20039;-51
2021/01/18 09:28:03;;;;;;;34.88;15.45;;;;;;;-13.94;64.04;100076.25;5123812;28;20293;-51
2021/01/18 09:30:28;;;;;;;28.20;14.95;;;;;;;-13.93;65.02;100059.72;5122821;28;20201;-54
2021/01/18 09:33:05;;;;;;;32.67;14.07;;;;;;;-14.41;63.90;99984.59;5124138;28;20099;-51
2021/01/18 09:35:34;;;;;;;23.50;12.98;;;;;;;-14.34;65.27;99973.50;5123791;28;20028;-51
2021/01/18 09:38:06;;;;;;;23.17;12.88;;;;;;;-13.58;65.09;100067.56;5123961;28;20064;-52
2021/01/18 09:40:41;;;;;;;29.38;13.32;;;;;;;-13.85;65.25;100028.88;5123956;27;20024;-51
2021/01/18 09:43:09;;;;;;;25.40;11.50;;;;;;;-14.14;65.71;99961.81;5123444;28;20286;-51
2021/01/18 09:45:35;;;;;;;24.95;11.65;;;;;;;-13.80;65.16;100049.16;5123938;28;20038;-50
2021/01/18 09:48:07;;;;;;;24.27;10.63;;;;;;;-13.91;64.38;100070.66;5123601;28;20027;-50
2021/01/18 09:50:33;;;;;;;;;;;;;;;-13.61;64.06;100041.53;5124036;28;20035;-50
2021/01/18 09:52:58;;;;;;;23.40;11.30;;;;;;;-13.52;66.02;100036.41;5123582;28;19946;-52
2021/01/18 09:55:49;;;;;;;21.63;10.60;;;;;;;-14.01;65.30;99958.69;5122699;28;20028;-50
2021/01/18 09:58:15;;;;;;;26.98;10.93;;;;;;;-13.35;64.19;100036.13;5121543;28;20031;-50
2021/01/18 10:00:44;;;;;;;22.35;11.20;;;;;;;-13.26;63.52;100033.47;5123260;28;20038;-51
2021/01/18 10:03:11;;;;;;;23.30;10.88;;;;;;;-13.12;64.36;100045.38;5123046;28;20063;-51
2021/01/18 10:05:40;;;;;;;25.95;11.23;;;;;;;-13.04;64.06;100049.34;5122796;28;20023;-51
2021/01/18 10:08:11;;;;;;;23.98;11.25;;;;;;;-13.74;63.88;99973.31;5122809;28;20216;-51
2021/01/18 10:10:59;;;;;;;27.27;12.43;;;;;;;-13.44;63.84;100042.88;5123115;28;20031;-52
2021/01/18 10:13:28;;;;;;;23.60;11.68;;;;;;;-13.29;64.44;100060.63;5123318;28;20027;-50
2021/01/18 10:15:54;;;;;;;28.63;12.05;;;;;;;-13.22;64.01;100060.38;5123193;28;20328;-52
2021/01/18 10:18:35;;;;;;;25.92;12.88;;;;;;;-13.72;64.37;99983.44;5122991;28;20072;-50
2021/01/18 10:21:02;;;;;;;30.80;14.75;;;;;;;-13.24;65.09;100065.22;5122896;28;20027;-51
2021/01/18 10:23:35;;;;;;;29.30;14.77;;;;;;;-13.22;64.35;100063.72;5120986;28;20035;-51
2021/01/18 10:26:17;;;;;;;31.05;15.85;;;;;;;-13.46;64.28;100026.94;5119520;28;20039;-51
2021/01/18 10:29:00;;;;;;;28.63;14.25;;;;;;;-13.22;63.43;100101.09;5113056;28;20036;-50
2021/01/18 10:31:31;;;;;;;33.00;15.43;;;;;;;-13.09;63.78;100087.13;5118782;28;20020;-51
2021/01/18 10:34:28;;;;;;;35.30;16.38;;;;;;;-13.10;63.63;100067.91;5120598;28;20058;-51
2021/01/18 10:36:56;;;;;;;35.25;16.17;;;;;;;-13.32;62.70;100067.84;5094526;28;20043;-51
2021/01/18 10:39:33;;;;;;;33.20;14.88;;;;;;;-13.35;63.25;100075.09;5116224;28;20039;-53
2021/01/18 10:42:19;;;;;;;31.05;15.95;;;;;;;-13.37;63.37;100088.28;5122385;28;20020;-52
2021/01/18 10:45:04;;;;;;;31.17;14.93;;;;;;;-13.13;64.60;100068.53;5108202;28;20031;-51
2021/01/18 10:47:29;;;;;;;32.75;13.82;;;;;;;-13.08;65.20;100066.41;5122626;27;20035;-51
2021/01/18 10:49:57;;;;;;;30.00;14.27;;;;;;;-13.02;63.82;100061.91;5122153;28;20219;-51
2021/01/18 10:52:41;;;;;;;35.40;16.77;;;;;;;-12.96;64.09;100064.03;5121173;28;20039;-51
2021/01/18 10:55:08;;;;;;;28.10;14.10;;;;;;;-13.03;63.82;100066.00;5102537;28;20347;-51
2021/01/18 10:57:38;;;;;;;29.23;14.82;;;;;;;-13.10;63.80;100057.94;5109587;28;20023;-52
2021/01/18 11:00:12;;;;;;;27.00;13.88;;;;;;;-12.97;63.96;100062.28;5121550;28;20031;-52
2021/01/18 11:02:38;;;;;;;25.98;14.32;;;;;;;-12.83;64.64;100069.19;5122972;28;20024;-51
2021/01/18 11:05:06;;;;;;;26.17;13.25;;;;;;;-12.79;64.68;100061.19;5122360;28;20047;-51
2021/01/18 11:07:33;;;;;;;28.90;15.50;;;;;;;-12.72;64.60;100047.59;5122982;28;20028;-51
2021/01/18 11:09:59;;;;;;;28.88;14.88;;;;;;;-13.00;64.65;100054.56;5123948;28;20089;-52
2021/01/18 11:12:43;;;;;;;34.25;16.05;;;;;;;-13.08;65.32;100056.44;5126971;28;20335;-51
2021/01/18 11:15:12;;;;;;;34.92;16.17;;;;;;;-13.08;66.30;100056.44;5127075;28;20039;-52
2021/01/18 11:17:39;;;;;;;28.92;15.68;;;;;;;-13.07;65.40;100046.59;5127354;27;20087;-51
2021/01/18 11:20:06;;;;;;;34.92;16.67;;;;;;;-13.11;66.05;100042.13;5126875;28;20339;-51
2021/01/18 11:22:35;;;;;;;34.72;15.23;;;;;;;-12.90;66.04;100037.06;5127040;27;20436;-51